createdAt,value
2019-06-27T00:01:32.699Z,11.45
2019-06-27T00:04:01.836Z,11.93
2019-06-27T00:06:31.576Z,11.00
2019-06-27T00:09:05.118Z,11.00
2019-06-27T00:11:34.918Z,11.30
2019-06-27T00:14:04.695Z,11.37
2019-06-27T00:16:34.169Z,10.65
2019-06-27T00:19:03.884Z,10.98
2019-06-27T00:21:33.625Z,11.18
2019-06-27T00:24:02.785Z,10.68
2019-06-27T00:26:38.153Z,9.95
2019-06-27T00:29:07.445Z,10.53
2019-06-27T00:31:36.973Z,10.75
2019-06-27T00:34:06.805Z,10.48
2019-06-27T00:36:35.975Z,9.95
2019-06-27T00:39:07.244Z,10.43
2019-06-27T00:41:36.413Z,10.15
2019-06-27T00:44:05.899Z,10.15
2019-06-27T00:46:35.721Z,10.00
2019-06-27T00:49:05.507Z,10.00
2019-06-27T00:51:35.087Z,9.88
2019-06-27T00:54:04.424Z,9.98
2019-06-27T00:56:34.162Z,10.15
2019-06-27T00:59:03.441Z,9.50
2019-06-27T01:01:32.591Z,9.98
2019-06-27T01:04:02.028Z,9.05
2019-06-27T01:06:31.835Z,9.70
2019-06-27T01:09:02.099Z,9.65
2019-06-27T01:11:31.427Z,9.05
2019-06-27T01:14:00.941Z,9.98
2019-06-27T01:16:30.979Z,9.55
2019-06-27T01:19:00.533Z,9.15
2019-06-27T01:21:30.153Z,9.37
2019-06-27T01:23:59.297Z,9.95
2019-06-27T01:26:28.767Z,9.05
2019-06-27T01:28:57.924Z,9.43
2019-06-27T01:31:27.139Z,9.45
2019-06-27T01:33:56.622Z,9.48
2019-06-27T01:36:25.873Z,9.65
2019-06-27T01:38:55.323Z,9.15
2019-06-27T01:41:25.033Z,9.18
2019-06-27T01:43:54.919Z,9.10
2019-06-27T01:46:24.071Z,10.20
2019-06-27T01:48:53.525Z,9.13
2019-06-27T01:51:24.881Z,9.75
2019-06-27T01:53:54.505Z,8.85
2019-06-27T01:56:24.820Z,9.08
2019-06-27T01:58:55.226Z,9.40
2019-06-27T02:01:24.327Z,9.27
2019-06-27T02:03:54.071Z,8.83
2019-06-27T02:06:23.459Z,9.53
2019-06-27T02:08:52.907Z,9.30
2019-06-27T02:11:22.059Z,8.88
2019-06-27T02:13:51.344Z,9.38
2019-06-27T02:16:21.404Z,9.83
2019-06-27T02:18:50.884Z,9.83
2019-06-27T02:21:20.366Z,8.95
2019-06-27T02:23:49.531Z,9.13
2019-06-27T02:26:18.888Z,8.60
2019-06-27T02:28:48.230Z,8.38
2019-06-27T02:31:17.791Z,8.80
2019-06-27T02:33:47.277Z,9.08
2019-06-27T02:36:16.518Z,8.97
2019-06-27T02:38:46.317Z,9.30
2019-06-27T02:41:16.446Z,8.90
2019-06-27T02:43:46.030Z,9.73
2019-06-27T02:46:15.463Z,9.60
2019-06-27T02:48:44.695Z,9.90
2019-06-27T02:51:14.221Z,9.10
2019-06-27T02:53:43.688Z,9.00
2019-06-27T02:56:13.438Z,9.08
2019-06-27T02:58:42.667Z,9.70
2019-06-27T03:01:11.947Z,10.38
2019-06-27T03:03:41.941Z,10.98
2019-06-27T03:06:11.572Z,10.33
2019-06-27T03:08:41.095Z,10.48
2019-06-27T03:11:12.000Z,11.18
2019-06-27T03:13:41.500Z,11.05
2019-06-27T03:16:11.858Z,10.63
2019-06-27T03:18:42.205Z,10.82
2019-06-27T03:21:11.665Z,11.47
2019-06-27T03:23:41.564Z,11.90
2019-06-27T03:26:10.831Z,11.43
2019-06-27T03:28:51.892Z,12.28
2019-06-27T03:31:11.877Z,12.10
2019-06-27T03:33:42.049Z,11.63
2019-06-27T03:36:11.657Z,11.43
2019-06-27T03:38:41.364Z,11.50
2019-06-27T03:41:10.854Z,12.18
2019-06-27T03:43:40.379Z,11.53
2019-06-27T03:46:10.129Z,11.30
2019-06-27T03:48:39.602Z,11.93
2019-06-27T03:51:09.591Z,11.70
2019-06-27T03:53:38.763Z,11.60
2019-06-27T03:56:08.149Z,11.85
2019-06-27T03:58:40.181Z,11.25
2019-06-27T04:01:09.358Z,11.28
2019-06-27T04:03:42.768Z,11.68
2019-06-27T04:06:10.273Z,11.30
2019-06-27T04:08:39.409Z,11.20
2019-06-27T04:11:09.079Z,11.15
2019-06-27T04:13:38.847Z,10.63
2019-06-27T04:16:09.090Z,11.55
2019-06-27T04:18:38.676Z,11.22
2019-06-27T04:21:08.074Z,10.40
2019-06-27T04:23:37.245Z,10.78
2019-06-27T04:26:06.999Z,11.05
2019-06-27T04:28:37.110Z,10.75
2019-06-27T04:31:07.066Z,10.35
2019-06-27T04:33:36.298Z,11.03
2019-06-27T04:36:05.830Z,11.08
2019-06-27T04:38:35.299Z,10.82
2019-06-27T04:41:04.972Z,10.90
2019-06-27T04:43:35.274Z,9.68
2019-06-27T04:46:04.865Z,11.43
2019-06-27T04:48:34.681Z,11.50
2019-06-27T04:51:06.876Z,11.15
2019-06-27T04:53:36.428Z,9.80
2019-06-27T04:56:06.096Z,10.90
2019-06-27T04:58:36.961Z,10.95
2019-06-27T05:01:06.923Z,10.33
2019-06-27T05:03:36.417Z,9.88
2019-06-27T05:06:06.525Z,11.50
2019-06-27T05:08:37.122Z,9.58
2019-06-27T05:11:06.897Z,10.03
2019-06-27T05:13:38.096Z,10.03
2019-06-27T05:16:07.670Z,9.80
2019-06-27T05:18:37.029Z,10.40
2019-06-27T05:21:06.657Z,9.88
2019-06-27T05:23:36.263Z,10.38
2019-06-27T05:26:06.893Z,10.80
2019-06-27T05:28:38.093Z,10.72
2019-06-27T05:31:08.319Z,9.03
2019-06-27T05:33:39.778Z,9.98
2019-06-27T05:36:12.025Z,9.48
2019-06-27T05:38:44.458Z,9.60
2019-06-27T05:41:14.697Z,9.43
2019-06-27T05:43:44.459Z,9.78
2019-06-27T05:46:18.148Z,10.53
2019-06-27T05:48:48.110Z,9.40
2019-06-27T05:51:17.984Z,8.60
2019-06-27T05:53:47.978Z,9.30
2019-06-27T05:56:20.006Z,9.90
2019-06-27T05:58:52.987Z,9.15
2019-06-27T06:01:22.860Z,10.23
2019-06-27T06:03:53.278Z,9.20
2019-06-27T06:06:32.537Z,7.83
2019-06-27T06:09:02.272Z,7.85
2019-06-27T06:11:32.038Z,9.28
2019-06-27T06:14:02.588Z,10.10
2019-06-27T06:16:34.925Z,9.40
2019-06-27T06:19:04.811Z,10.43
2019-06-27T06:21:34.772Z,9.95
2019-06-27T06:24:04.365Z,9.90
2019-06-27T06:26:34.112Z,10.10
2019-06-27T06:29:03.557Z,10.33
2019-06-27T06:31:33.623Z,10.43
2019-06-27T06:34:03.149Z,9.83
2019-06-27T06:36:32.934Z,10.10
2019-06-27T06:39:02.751Z,9.60
2019-06-27T06:41:32.427Z,10.00
2019-06-27T06:44:01.653Z,10.00
2019-06-27T06:46:32.243Z,10.20
2019-06-27T06:49:01.994Z,10.48
2019-06-27T06:51:31.792Z,9.93
2019-06-27T06:54:01.816Z,9.80
2019-06-27T06:56:32.696Z,10.03
2019-06-27T06:59:02.510Z,10.53
2019-06-27T07:01:32.152Z,10.13
2019-06-27T07:04:01.513Z,10.43
2019-06-27T07:06:31.988Z,10.40
2019-06-27T07:09:02.425Z,9.50
2019-06-27T07:11:33.094Z,10.20
2019-06-27T07:14:02.741Z,9.55
2019-06-27T07:16:31.974Z,9.78
2019-06-27T07:19:01.933Z,9.90
2019-06-27T07:21:32.316Z,9.68
2019-06-27T07:24:03.083Z,9.78
2019-06-27T07:26:32.740Z,9.03
2019-06-27T07:29:05.030Z,10.10
2019-06-27T07:31:34.833Z,9.70
2019-06-27T07:34:04.335Z,10.63
2019-06-27T07:36:33.848Z,10.10
2019-06-27T07:39:04.632Z,10.13
2019-06-27T07:41:34.419Z,10.23
2019-06-27T07:44:04.041Z,11.05
2019-06-27T07:46:34.147Z,11.03
2019-06-27T07:49:05.178Z,10.20
2019-06-27T07:51:35.105Z,9.88
2019-06-27T07:54:04.624Z,10.60
2019-06-27T07:56:37.365Z,11.17
2019-06-27T07:59:07.150Z,10.78
2019-06-27T08:01:37.053Z,10.72
2019-06-27T08:04:07.543Z,10.95
2019-06-27T08:06:38.728Z,11.40
2019-06-27T08:09:07.903Z,11.22
2019-06-27T08:11:39.694Z,11.68
2019-06-27T08:14:09.500Z,11.65
2019-06-27T08:16:38.861Z,11.25
2019-06-27T08:19:08.334Z,11.73
2019-06-27T08:21:37.553Z,11.20
2019-06-27T08:24:07.127Z,10.93
2019-06-27T08:26:37.047Z,11.50
2019-06-27T08:29:06.560Z,12.18
2019-06-27T08:31:50.574Z,11.95
2019-06-27T08:34:09.247Z,11.85
2019-06-27T08:36:40.960Z,11.40
2019-06-27T08:39:10.638Z,9.65
2019-06-27T08:41:40.429Z,10.55
2019-06-27T08:44:10.054Z,11.75
2019-06-27T08:46:41.419Z,10.95
2019-06-27T08:49:11.431Z,11.30
2019-06-27T08:51:41.139Z,11.75
2019-06-27T08:54:11.550Z,10.88
2019-06-27T08:56:41.113Z,11.30
2019-06-27T08:59:11.834Z,10.80
2019-06-27T09:01:41.466Z,11.70
2019-06-27T09:04:11.590Z,11.33
2019-06-27T09:06:41.012Z,11.53
2019-06-27T09:09:10.829Z,10.07
2019-06-27T09:11:42.572Z,10.30
2019-06-27T09:14:12.864Z,10.40
2019-06-27T09:16:48.394Z,10.15
2019-06-27T09:19:17.131Z,10.38
2019-06-27T09:21:46.361Z,10.23
2019-06-27T09:24:16.683Z,10.68
2019-06-27T09:26:46.816Z,10.70
2019-06-27T09:29:18.659Z,11.15
2019-06-27T09:31:48.304Z,10.30
2019-06-27T09:34:21.116Z,10.23
2019-06-27T09:36:50.604Z,9.45
2019-06-27T09:39:20.250Z,9.53
2019-06-27T09:41:49.672Z,9.35
2019-06-27T09:44:19.235Z,10.10
2019-06-27T09:46:48.876Z,9.95
2019-06-27T09:49:20.728Z,10.48
2019-06-27T09:51:50.553Z,8.85
2019-06-27T09:54:20.123Z,9.73
2019-06-27T09:56:50.033Z,9.18
2019-06-27T09:59:19.615Z,9.70
2019-06-27T10:01:49.043Z,9.68
2019-06-27T10:04:18.576Z,10.50
2019-06-27T10:06:48.197Z,10.98
2019-06-27T10:09:17.776Z,11.28
2019-06-27T10:11:47.247Z,10.08
2019-06-27T10:14:17.081Z,10.72
2019-06-27T10:16:47.583Z,9.85
2019-06-27T10:19:20.755Z,10.32
2019-06-27T10:21:50.203Z,10.65
2019-06-27T10:24:19.495Z,11.48
2019-06-27T10:26:50.035Z,11.67
2019-06-27T10:29:23.014Z,12.17
2019-06-27T10:31:52.708Z,11.55
2019-06-27T10:34:22.211Z,11.85
2019-06-27T10:36:52.267Z,13.05
2019-06-27T10:39:21.535Z,13.72
2019-06-27T10:41:51.752Z,14.47
2019-06-27T10:44:21.665Z,13.43
2019-06-27T10:46:51.363Z,14.33
2019-06-27T10:49:21.309Z,14.25
2019-06-27T10:51:52.889Z,14.35
2019-06-27T10:54:22.560Z,14.73
2019-06-27T10:56:52.883Z,14.18
2019-06-27T10:59:25.089Z,14.40
2019-06-27T11:01:55.994Z,15.08
2019-06-27T11:04:29.826Z,14.45
2019-06-27T11:06:59.716Z,14.70
2019-06-27T11:09:30.929Z,12.75
2019-06-27T11:12:00.394Z,13.60
2019-06-27T11:14:30.637Z,14.15
2019-06-27T11:17:00.731Z,13.72
2019-06-27T11:19:31.076Z,14.13
2019-06-27T11:22:00.479Z,13.65
2019-06-27T11:24:30.416Z,13.85
2019-06-27T11:26:59.698Z,14.03
2019-06-27T11:29:30.322Z,12.55
2019-06-27T11:31:59.554Z,14.03
2019-06-27T11:34:29.711Z,14.33
2019-06-27T11:37:02.644Z,13.40
2019-06-27T11:39:32.612Z,14.10
2019-06-27T11:42:05.292Z,14.20
2019-06-27T11:44:54.454Z,14.43
2019-06-27T11:47:34.434Z,13.30
2019-06-27T11:50:22.068Z,14.00
2019-06-27T11:52:52.151Z,13.68
2019-06-27T11:55:25.593Z,13.53
2019-06-27T11:58:07.672Z,14.50
2019-06-27T12:00:41.044Z,14.83
2019-06-27T12:03:18.826Z,15.40
2019-06-27T12:05:48.359Z,14.10
2019-06-27T12:08:21.235Z,14.93
2019-06-27T12:10:55.488Z,14.93
2019-06-27T12:13:25.026Z,14.73
2019-06-27T12:15:54.552Z,15.15
2019-06-27T12:18:33.298Z,14.95
2019-06-27T12:21:06.176Z,15.32
2019-06-27T12:23:39.590Z,14.98
2019-06-27T12:26:10.126Z,14.73
2019-06-27T12:28:40.084Z,13.68
2019-06-27T12:31:20.615Z,14.35
2019-06-27T12:34:06.772Z,14.28
2019-06-27T12:36:28.083Z,15.03
2019-06-27T12:38:57.349Z,14.33
2019-06-27T12:41:32.349Z,15.65
2019-06-27T12:44:04.081Z,12.40
2019-06-27T12:46:33.971Z,12.55
2019-06-27T12:49:03.815Z,11.73
2019-06-27T12:51:35.326Z,12.82
2019-06-27T12:54:08.372Z,13.60
2019-06-27T12:56:38.573Z,13.10
2019-06-27T12:59:18.066Z,13.43
2019-06-27T13:01:51.102Z,13.10
2019-06-27T13:04:23.842Z,13.05
2019-06-27T13:06:52.938Z,13.75
2019-06-27T13:09:26.761Z,12.63
2019-06-27T13:11:58.411Z,12.43
2019-06-27T13:14:29.577Z,11.40
2019-06-27T13:17:02.978Z,13.10
2019-06-27T13:19:33.652Z,13.23
2019-06-27T13:22:15.439Z,13.90
2019-06-27T13:24:50.884Z,13.85
2019-06-27T13:27:20.509Z,13.32
2019-06-27T13:29:52.274Z,13.13
2019-06-27T13:32:25.675Z,13.95
2019-06-27T13:34:55.635Z,13.68
2019-06-27T13:37:29.904Z,13.90
2019-06-27T13:39:57.594Z,13.80
2019-06-27T13:42:29.934Z,13.60
2019-06-27T13:44:59.430Z,13.10
2019-06-27T13:47:29.234Z,13.55
2019-06-27T13:49:58.739Z,14.30
2019-06-27T13:52:28.954Z,15.00
2019-06-27T13:55:01.681Z,15.03
2019-06-27T13:57:32.897Z,14.93
2019-06-27T14:00:02.841Z,14.18
2019-06-27T14:02:34.343Z,15.30
2019-06-27T14:05:04.154Z,14.18
2019-06-27T14:07:38.214Z,14.73
2019-06-27T14:10:10.708Z,14.18
2019-06-27T14:12:44.476Z,14.03
2019-06-27T14:15:13.255Z,14.65
2019-06-27T14:17:48.225Z,14.03
2019-06-27T14:20:19.154Z,15.15
2019-06-27T14:22:51.806Z,15.35
2019-06-27T14:25:21.495Z,15.50
2019-06-27T14:27:51.237Z,14.77
2019-06-27T14:30:21.267Z,16.37
2019-06-27T14:32:53.573Z,16.10
2019-06-27T14:35:23.782Z,15.97
2019-06-27T14:37:53.846Z,15.60
2019-06-27T14:40:25.575Z,15.13
2019-06-27T14:42:54.932Z,14.43
2019-06-27T14:45:25.686Z,14.53
2019-06-27T14:47:54.923Z,14.77
2019-06-27T14:50:24.557Z,13.95
2019-06-27T14:52:54.571Z,14.45
2019-06-27T14:55:36.362Z,14.73
2019-06-27T14:58:05.948Z,14.00
2019-06-27T15:00:35.636Z,14.10
2019-06-27T15:03:05.234Z,14.33
2019-06-27T15:05:35.776Z,14.13
2019-06-27T15:08:06.224Z,13.93
2019-06-27T15:10:36.404Z,13.70
2019-06-27T15:13:07.712Z,13.62
2019-06-27T15:15:37.873Z,13.70
2019-06-27T15:18:07.350Z,13.70
2019-06-27T15:20:37.122Z,12.90
2019-06-27T15:23:06.917Z,13.48
2019-06-27T15:25:36.927Z,13.88
2019-06-27T15:28:07.529Z,13.72
2019-06-27T15:30:37.330Z,14.93
2019-06-27T15:33:07.066Z,14.65
2019-06-27T15:35:50.876Z,14.25
2019-06-27T15:38:08.169Z,14.10
2019-06-27T15:40:38.678Z,13.80
2019-06-27T15:43:10.438Z,13.28
2019-06-27T15:45:42.008Z,14.07
2019-06-27T15:48:12.215Z,13.03
2019-06-27T15:50:43.592Z,12.95
2019-06-27T15:53:13.532Z,12.65
2019-06-27T15:55:43.260Z,13.62
2019-06-27T15:58:14.235Z,12.47
2019-06-27T16:00:43.931Z,12.78
2019-06-27T16:03:13.542Z,12.67
2019-06-27T16:05:42.787Z,12.30
2019-06-27T16:08:12.697Z,12.50
2019-06-27T16:10:41.906Z,12.23
2019-06-27T16:13:11.813Z,12.00
2019-06-27T16:15:41.830Z,12.03
2019-06-27T16:18:11.304Z,12.40
2019-06-27T16:20:40.989Z,12.50
2019-06-27T16:23:11.320Z,12.03
2019-06-27T16:25:41.720Z,11.33
2019-06-27T16:28:11.481Z,11.70
2019-06-27T16:30:43.382Z,11.75
2019-06-27T16:33:13.743Z,12.07
2019-06-27T16:35:43.317Z,11.28
2019-06-27T16:38:13.143Z,13.70
2019-06-27T16:40:42.683Z,12.50
2019-06-27T16:43:12.401Z,11.85
2019-06-27T16:45:42.011Z,11.75
2019-06-27T16:48:11.882Z,12.43
2019-06-27T16:50:41.654Z,12.98
2019-06-27T16:53:11.304Z,13.03
2019-06-27T16:55:43.026Z,12.55
2019-06-27T16:58:12.588Z,12.73
2019-06-27T17:00:42.328Z,12.73
2019-06-27T17:03:12.083Z,12.33
2019-06-27T17:05:41.937Z,12.20
2019-06-27T17:08:11.631Z,12.55
2019-06-27T17:10:42.647Z,12.00
2019-06-27T17:13:22.084Z,12.13
2019-06-27T17:15:53.163Z,12.65
2019-06-27T17:18:22.355Z,11.65
2019-06-27T17:20:52.365Z,11.73
2019-06-27T17:23:22.525Z,11.00
2019-06-27T17:25:52.505Z,10.63
2019-06-27T17:28:25.062Z,10.70
2019-06-27T17:30:57.084Z,10.63
2019-06-27T17:33:27.111Z,10.38
2019-06-27T17:35:56.885Z,10.53
2019-06-27T17:38:26.890Z,10.60
2019-06-27T17:40:56.616Z,10.93
2019-06-27T17:43:26.317Z,9.73
2019-06-27T17:45:56.413Z,10.48
2019-06-27T17:48:27.044Z,10.50
2019-06-27T17:50:57.064Z,10.05
2019-06-27T17:53:26.773Z,9.60
2019-06-27T17:55:56.695Z,9.83
2019-06-27T17:58:26.939Z,9.13
2019-06-27T18:00:57.012Z,9.00
2019-06-27T18:03:27.215Z,8.87
2019-06-27T18:05:56.918Z,8.75
2019-06-27T18:08:26.374Z,8.30
2019-06-27T18:11:01.115Z,8.38
2019-06-27T18:13:31.095Z,7.53
2019-06-27T18:16:01.369Z,7.10
2019-06-27T18:18:31.273Z,7.37
2019-06-27T18:21:03.639Z,7.53
2019-06-27T18:23:35.599Z,6.40
2019-06-27T18:26:05.662Z,6.10
2019-06-27T18:28:36.157Z,6.05
2019-06-27T18:31:06.103Z,5.30
2019-06-27T18:33:38.599Z,5.83
2019-06-27T18:36:08.160Z,5.65
2019-06-27T18:38:38.179Z,5.30
2019-06-27T18:41:12.728Z,4.60
2019-06-27T18:43:42.414Z,4.87
2019-06-27T18:46:13.095Z,4.80
2019-06-27T18:48:45.976Z,4.80
2019-06-27T18:51:16.167Z,4.35
2019-06-27T18:53:45.442Z,4.00
2019-06-27T18:56:15.105Z,4.60
2019-06-27T18:58:45.324Z,4.10
2019-06-27T19:01:15.365Z,4.15
2019-06-27T19:03:44.870Z,4.28
2019-06-27T19:06:14.482Z,4.00
2019-06-27T19:08:43.736Z,4.23
2019-06-27T19:11:13.076Z,3.83
2019-06-27T19:13:42.363Z,3.50
2019-06-27T19:16:12.571Z,3.98
2019-06-27T19:18:47.519Z,4.00
2019-06-27T19:21:22.795Z,4.00
2019-06-27T19:24:01.577Z,3.60
2019-06-27T19:26:31.415Z,3.65
2019-06-27T19:29:01.029Z,3.25
2019-06-27T19:31:32.976Z,3.15
2019-06-27T19:34:02.731Z,2.98
2019-06-27T19:36:32.244Z,3.20
2019-06-27T19:39:02.085Z,3.17
2019-06-27T19:41:31.936Z,3.10
2019-06-27T19:44:02.073Z,3.00
2019-06-27T19:46:32.068Z,2.80
2019-06-27T19:49:02.136Z,2.37
2019-06-27T19:51:31.926Z,2.60
2019-06-27T19:54:02.323Z,2.67
2019-06-27T19:56:32.120Z,2.33
2019-06-27T19:59:02.500Z,2.65
2019-06-27T20:01:31.976Z,2.45
2019-06-27T20:04:02.177Z,2.20
2019-06-27T20:06:32.282Z,2.23
2019-06-27T20:09:05.542Z,2.50
2019-06-27T20:11:35.250Z,2.30
2019-06-27T20:14:04.960Z,2.20
2019-06-27T20:16:34.431Z,2.87
2019-06-27T20:19:05.945Z,2.50
2019-06-27T20:21:35.522Z,2.20
2019-06-27T20:24:05.590Z,2.30
2019-06-27T20:26:36.233Z,2.33
2019-06-27T20:29:06.816Z,2.10
2019-06-27T20:31:36.154Z,2.15
2019-06-27T20:34:05.776Z,2.00
2019-06-27T20:36:35.037Z,2.35
2019-06-27T20:39:05.686Z,2.30
2019-06-27T20:41:35.543Z,1.90
2019-06-27T20:44:05.552Z,2.43
2019-06-27T20:46:35.032Z,2.42
2019-06-27T20:49:04.625Z,2.20
2019-06-27T20:51:38.298Z,2.10
2019-06-27T20:54:14.977Z,2.30
2019-06-27T20:56:48.018Z,2.50
2019-06-27T20:59:17.502Z,2.62
2019-06-27T21:01:47.165Z,2.77
2019-06-27T21:04:16.610Z,2.40
2019-06-27T21:06:45.838Z,2.67
2019-06-27T21:09:15.376Z,2.90
2019-06-27T21:11:46.004Z,2.85
2019-06-27T21:14:15.981Z,3.00
2019-06-27T21:16:45.368Z,2.95
2019-06-27T21:19:15.168Z,2.90
2019-06-27T21:21:44.775Z,3.10
2019-06-27T21:24:14.253Z,3.03
2019-06-27T21:26:44.053Z,2.80
2019-06-27T21:29:13.509Z,2.40
2019-06-27T21:31:43.348Z,2.30
2019-06-27T21:34:13.007Z,2.37
2019-06-27T21:36:43.652Z,2.40
2019-06-27T21:39:16.818Z,3.02
2019-06-27T21:41:46.748Z,2.60
2019-06-27T21:44:16.958Z,2.37
2019-06-27T21:46:46.505Z,2.05
2019-06-27T21:49:16.719Z,2.37
2019-06-27T21:51:48.734Z,2.80
2019-06-27T21:54:28.653Z,2.10
2019-06-27T21:56:59.243Z,1.85
2019-06-27T21:59:30.439Z,2.60
2019-06-27T22:02:11.611Z,2.30
2019-06-27T22:04:42.072Z,2.20
2019-06-27T22:07:13.650Z,2.00
2019-06-27T22:09:45.847Z,1.80
2019-06-27T22:12:17.476Z,2.10
2019-06-27T22:14:58.853Z,2.30
2019-06-27T22:17:36.012Z,1.90
2019-06-27T22:20:25.548Z,1.92
2019-06-27T22:22:59.977Z,1.70
2019-06-27T22:25:40.571Z,1.62
2019-06-27T22:28:05.406Z,1.70
2019-06-27T22:30:35.458Z,1.90
2019-06-27T22:33:05.300Z,1.60
2019-06-27T22:35:35.453Z,1.45
2019-06-27T22:38:22.840Z,1.70
2019-06-27T22:41:11.037Z,2.00
2019-06-27T22:43:58.017Z,1.83
2019-06-27T22:46:44.971Z,1.70
2019-06-27T22:49:15.317Z,1.77
2019-06-27T22:52:02.444Z,1.50
2019-06-27T22:54:33.345Z,1.75
2019-06-27T22:57:02.488Z,1.85
2019-06-27T22:59:31.744Z,1.75
2019-06-27T23:02:00.947Z,1.80
2019-06-27T23:04:30.491Z,1.70
2019-06-27T23:07:00.270Z,1.60
2019-06-27T23:09:29.601Z,1.72
2019-06-27T23:11:59.307Z,1.77
2019-06-27T23:14:28.506Z,1.80
2019-06-27T23:16:58.052Z,2.00
2019-06-27T23:19:27.338Z,2.10
2019-06-27T23:21:56.436Z,1.92
2019-06-27T23:24:26.238Z,1.90
2019-06-27T23:26:55.712Z,2.10
2019-06-27T23:29:25.147Z,2.20
2019-06-27T23:32:13.636Z,2.00
2019-06-27T23:34:43.281Z,1.77
2019-06-27T23:37:12.703Z,1.90
2019-06-27T23:39:42.154Z,1.80
2019-06-27T23:42:11.386Z,1.90
2019-06-27T23:44:41.102Z,2.58
2019-06-27T23:47:10.526Z,1.92
2019-06-27T23:49:39.639Z,1.90
2019-06-27T23:52:10.112Z,1.80
2019-06-27T23:54:39.823Z,2.22
2019-06-27T23:57:09.385Z,1.85
2019-06-27T23:59:38.907Z,2.10
